sensor_id;sensor_type;location;lat;lon;timestamp;P1;durP1;ratioP1;P2;durP2;ratioP2
68300;SDS011;55146;47.468;18.806;2023-03-24T00:01:40;62.40;;;20.80;;
68300;SDS011;55146;47.468;18.806;2023-03-24T00:04:05;60.17;;;20.90;;
68300;SDS011;55146;47.468;18.806;2023-03-24T00:06:30;45.47;;;17.40;;
68300;SDS011;55146;47.468;18.806;2023-03-24T00:08:58;38.00;;;14.93;;
68300;SDS011;55146;47.468;18.806;2023-03-24T00:11:24;35.63;;;15.17;;
68300;SDS011;55146;47.468;18.806;2023-03-24T00:13:50;32.35;;;15.18;;
68300;SDS011;55146;47.468;18.806;2023-03-24T00:16:15;30.83;;;13.73;;
68300;SDS011;55146;47.468;18.806;2023-03-24T00:18:43;25.60;;;12.75;;
68300;SDS011;55146;47.468;18.806;2023-03-24T00:21:09;29.83;;;13.05;;
68300;SDS011;55146;47.468;18.806;2023-03-24T00:23:35;29.30;;;13.00;;
68300;SDS011;55146;47.468;18.806;2023-03-24T00:26:05;25.48;;;12.27;;
68300;SDS011;55146;47.468;18.806;2023-03-24T00:28:39;30.02;;;13.02;;
68300;SDS011;55146;47.468;18.806;2023-03-24T00:31:07;25.50;;;13.30;;
68300;SDS011;55146;47.468;18.806;2023-03-24T00:33:33;24.92;;;11.82;;
68300;SDS011;55146;47.468;18.806;2023-03-24T00:36:00;23.07;;;13.27;;
68300;SDS011;55146;47.468;18.806;2023-03-24T00:38:27;25.37;;;12.85;;
68300;SDS011;55146;47.468;18.806;2023-03-24T00:40:52;24.30;;;13.45;;
68300;SDS011;55146;47.468;18.806;2023-03-24T00:43:18;24.50;;;12.90;;
68300;SDS011;55146;47.468;18.806;2023-03-24T00:45:45;29.92;;;13.80;;
68300;SDS011;55146;47.468;18.806;2023-03-24T00:48:11;30.90;;;15.23;;
68300;SDS011;55146;47.468;18.806;2023-03-24T00:50:48;112.05;;;37.28;;
68300;SDS011;55146;47.468;18.806;2023-03-24T00:53:15;106.10;;;36.47;;
68300;SDS011;55146;47.468;18.806;2023-03-24T00:55:41;108.47;;;38.55;;
68300;SDS011;55146;47.468;18.806;2023-03-24T00:58:10;115.45;;;39.83;;
68300;SDS011;55146;47.468;18.806;2023-03-24T01:00:42;109.40;;;37.13;;
68300;SDS011;55146;47.468;18.806;2023-03-24T01:03:11;96.72;;;35.42;;
68300;SDS011;55146;47.468;18.806;2023-03-24T01:05:37;85.77;;;32.40;;
68300;SDS011;55146;47.468;18.806;2023-03-24T01:08:03;77.12;;;29.87;;
68300;SDS011;55146;47.468;18.806;2023-03-24T01:10:34;69.80;;;27.37;;
68300;SDS011;55146;47.468;18.806;2023-03-24T01:13:06;56.33;;;23.37;;
68300;SDS011;55146;47.468;18.806;2023-03-24T01:15:32;53.15;;;22.23;;
68300;SDS011;55146;47.468;18.806;2023-03-24T01:18:00;46.67;;;19.35;;
68300;SDS011;55146;47.468;18.806;2023-03-24T01:20:26;50.00;;;19.92;;
68300;SDS011;55146;47.468;18.806;2023-03-24T01:22:57;44.47;;;19.80;;
68300;SDS011;55146;47.468;18.806;2023-03-24T01:25:23;38.03;;;17.85;;
68300;SDS011;55146;47.468;18.806;2023-03-24T01:27:50;36.88;;;19.27;;
68300;SDS011;55146;47.468;18.806;2023-03-24T01:30:17;31.33;;;15.73;;
68300;SDS011;55146;47.468;18.806;2023-03-24T01:32:45;33.95;;;16.73;;
68300;SDS011;55146;47.468;18.806;2023-03-24T01:35:10;26.13;;;14.43;;
68300;SDS011;55146;47.468;18.806;2023-03-24T01:37:36;25.60;;;15.50;;
68300;SDS011;55146;47.468;18.806;2023-03-24T01:40:03;22.77;;;12.93;;
68300;SDS011;55146;47.468;18.806;2023-03-24T01:42:36;26.62;;;14.02;;
68300;SDS011;55146;47.468;18.806;2023-03-24T01:48:10;23.93;;;14.33;;
68300;SDS011;55146;47.468;18.806;2023-03-24T01:50:38;22.52;;;14.45;;
68300;SDS011;55146;47.468;18.806;2023-03-24T01:53:06;23.33;;;13.50;;
68300;SDS011;55146;47.468;18.806;2023-03-24T01:55:32;20.62;;;13.85;;
68300;SDS011;55146;47.468;18.806;2023-03-24T01:57:58;22.03;;;13.80;;
68300;SDS011;55146;47.468;18.806;2023-03-24T02:00:26;21.58;;;13.43;;
68300;SDS011;55146;47.468;18.806;2023-03-24T02:03:00;21.73;;;14.32;;
68300;SDS011;55146;47.468;18.806;2023-03-24T02:05:31;20.13;;;13.23;;
68300;SDS011;55146;47.468;18.806;2023-03-24T02:08:02;21.87;;;13.55;;
68300;SDS011;55146;47.468;18.806;2023-03-24T02:10:32;21.12;;;13.82;;
68300;SDS011;55146;47.468;18.806;2023-03-24T02:13:00;20.95;;;13.27;;
68300;SDS011;55146;47.468;18.806;2023-03-24T02:15:27;22.47;;;13.07;;
68300;SDS011;55146;47.468;18.806;2023-03-24T02:17:59;20.08;;;12.70;;
68300;SDS011;55146;47.468;18.806;2023-03-24T02:26:11;21.23;;;14.03;;
68300;SDS011;55146;47.468;18.806;2023-03-24T02:34:47;22.58;;;12.82;;
68300;SDS011;55146;47.468;18.806;2023-03-24T02:40:33;21.80;;;14.07;;
68300;SDS011;55146;47.468;18.806;2023-03-24T02:43:52;19.95;;;12.70;;
68300;SDS011;55146;47.468;18.806;2023-03-24T02:51:49;30.20;;;15.38;;
68300;SDS011;55146;47.468;18.806;2023-03-24T02:54:44;40.37;;;19.50;;
68300;SDS011;55146;47.468;18.806;2023-03-24T02:57:29;37.90;;;18.90;;
68300;SDS011;55146;47.468;18.806;2023-03-24T02:59:56;47.58;;;21.37;;
68300;SDS011;55146;47.468;18.806;2023-03-24T03:02:33;42.80;;;20.02;;
68300;SDS011;55146;47.468;18.806;2023-03-24T03:05:13;46.92;;;19.10;;
68300;SDS011;55146;47.468;18.806;2023-03-24T03:07:44;40.37;;;19.83;;
68300;SDS011;55146;47.468;18.806;2023-03-24T03:10:14;38.63;;;18.40;;
68300;SDS011;55146;47.468;18.806;2023-03-24T03:12:45;36.47;;;17.98;;
68300;SDS011;55146;47.468;18.806;2023-03-24T03:15:16;32.03;;;15.98;;
68300;SDS011;55146;47.468;18.806;2023-03-24T03:17:47;38.17;;;16.08;;
68300;SDS011;55146;47.468;18.806;2023-03-24T03:20:23;26.30;;;15.17;;
68300;SDS011;55146;47.468;18.806;2023-03-24T03:25:32;26.30;;;13.43;;
68300;SDS011;55146;47.468;18.806;2023-03-24T03:28:02;20.33;;;13.62;;
68300;SDS011;55146;47.468;18.806;2023-03-24T03:30:50;20.48;;;13.57;;
68300;SDS011;55146;47.468;18.806;2023-03-24T03:33:19;19.93;;;13.47;;
68300;SDS011;55146;47.468;18.806;2023-03-24T03:35:57;19.60;;;12.95;;
68300;SDS011;55146;47.468;18.806;2023-03-24T03:38:24;21.33;;;15.35;;
68300;SDS011;55146;47.468;18.806;2023-03-24T03:40:58;20.23;;;14.25;;
68300;SDS011;55146;47.468;18.806;2023-03-24T03:43:27;21.00;;;14.20;;
68300;SDS011;55146;47.468;18.806;2023-03-24T03:45:54;22.63;;;15.97;;
68300;SDS011;55146;47.468;18.806;2023-03-24T03:48:19;21.37;;;14.65;;
68300;SDS011;55146;47.468;18.806;2023-03-24T03:50:45;24.30;;;15.00;;
68300;SDS011;55146;47.468;18.806;2023-03-24T03:53:15;23.67;;;14.27;;
68300;SDS011;55146;47.468;18.806;2023-03-24T03:55:43;22.08;;;14.05;;
68300;SDS011;55146;47.468;18.806;2023-03-24T03:58:09;21.92;;;14.27;;
68300;SDS011;55146;47.468;18.806;2023-03-24T04:00:35;30.10;;;15.73;;
68300;SDS011;55146;47.468;18.806;2023-03-24T04:03:12;28.83;;;16.48;;
68300;SDS011;55146;47.468;18.806;2023-03-24T04:06:02;24.20;;;14.30;;
68300;SDS011;55146;47.468;18.806;2023-03-24T04:16:36;25.67;;;14.52;;
68300;SDS011;55146;47.468;18.806;2023-03-24T04:19:28;23.27;;;14.68;;
68300;SDS011;55146;47.468;18.806;2023-03-24T04:27:54;25.55;;;16.05;;
68300;SDS011;55146;47.468;18.806;2023-03-24T04:30:51;21.75;;;13.52;;
68300;SDS011;55146;47.468;18.806;2023-03-24T04:36:04;22.77;;;15.55;;
68300;SDS011;55146;47.468;18.806;2023-03-24T04:38:42;25.87;;;15.23;;
68300;SDS011;55146;47.468;18.806;2023-03-24T04:41:12;22.23;;;15.30;;
68300;SDS011;55146;47.468;18.806;2023-03-24T04:43:42;24.77;;;16.20;;
68300;SDS011;55146;47.468;18.806;2023-03-24T04:46:09;28.10;;;17.30;;
68300;SDS011;55146;47.468;18.806;2023-03-24T04:48:34;28.27;;;15.63;;
68300;SDS011;55146;47.468;18.806;2023-03-24T04:51:01;24.52;;;15.40;;
68300;SDS011;55146;47.468;18.806;2023-03-24T04:53:27;22.75;;;15.35;;
68300;SDS011;55146;47.468;18.806;2023-03-24T04:58:40;23.60;;;14.68;;
68300;SDS011;55146;47.468;18.806;2023-03-24T05:01:05;20.87;;;14.40;;
68300;SDS011;55146;47.468;18.806;2023-03-24T05:03:32;21.55;;;14.15;;
68300;SDS011;55146;47.468;18.806;2023-03-24T05:06:02;24.12;;;14.57;;
68300;SDS011;55146;47.468;18.806;2023-03-24T05:08:29;24.70;;;14.18;;
68300;SDS011;55146;47.468;18.806;2023-03-24T05:10:55;23.80;;;15.07;;
68300;SDS011;55146;47.468;18.806;2023-03-24T05:13:20;23.10;;;15.57;;
68300;SDS011;55146;47.468;18.806;2023-03-24T05:15:46;20.43;;;14.13;;
68300;SDS011;55146;47.468;18.806;2023-03-24T05:18:11;22.50;;;14.47;;
68300;SDS011;55146;47.468;18.806;2023-03-24T05:20:37;26.73;;;14.60;;
68300;SDS011;55146;47.468;18.806;2023-03-24T05:23:02;25.43;;;15.87;;
68300;SDS011;55146;47.468;18.806;2023-03-24T05:25:27;24.17;;;16.23;;
68300;SDS011;55146;47.468;18.806;2023-03-24T05:27:53;21.67;;;14.87;;
68300;SDS011;55146;47.468;18.806;2023-03-24T05:30:18;21.77;;;15.03;;
68300;SDS011;55146;47.468;18.806;2023-03-24T05:32:44;22.60;;;14.75;;
68300;SDS011;55146;47.468;18.806;2023-03-24T05:38:32;29.12;;;18.55;;
68300;SDS011;55146;47.468;18.806;2023-03-24T05:40:58;27.62;;;17.37;;
68300;SDS011;55146;47.468;18.806;2023-03-24T05:43:24;27.83;;;17.67;;
68300;SDS011;55146;47.468;18.806;2023-03-24T05:45:50;28.38;;;18.48;;
68300;SDS011;55146;47.468;18.806;2023-03-24T05:48:15;28.33;;;18.27;;
68300;SDS011;55146;47.468;18.806;2023-03-24T05:50:40;29.83;;;18.93;;
68300;SDS011;55146;47.468;18.806;2023-03-24T05:53:06;28.13;;;17.23;;
68300;SDS011;55146;47.468;18.806;2023-03-24T05:55:31;31.33;;;18.02;;
68300;SDS011;55146;47.468;18.806;2023-03-24T05:57:57;27.03;;;16.57;;
68300;SDS011;55146;47.468;18.806;2023-03-24T06:00:26;28.45;;;18.35;;
68300;SDS011;55146;47.468;18.806;2023-03-24T06:02:52;29.95;;;16.17;;
68300;SDS011;55146;47.468;18.806;2023-03-24T06:05:17;23.27;;;15.00;;
68300;SDS011;55146;47.468;18.806;2023-03-24T06:07:44;23.75;;;15.20;;
68300;SDS011;55146;47.468;18.806;2023-03-24T06:10:10;22.20;;;14.03;;
68300;SDS011;55146;47.468;18.806;2023-03-24T06:12:38;25.70;;;15.15;;
68300;SDS011;55146;47.468;18.806;2023-03-24T06:15:05;24.95;;;15.07;;
68300;SDS011;55146;47.468;18.806;2023-03-24T06:17:31;21.13;;;14.10;;
68300;SDS011;55146;47.468;18.806;2023-03-24T06:19:57;23.77;;;14.32;;
68300;SDS011;55146;47.468;18.806;2023-03-24T06:22:27;25.30;;;17.62;;
68300;SDS011;55146;47.468;18.806;2023-03-24T06:24:53;36.17;;;26.30;;
68300;SDS011;55146;47.468;18.806;2023-03-24T06:27:21;31.90;;;22.00;;
68300;SDS011;55146;47.468;18.806;2023-03-24T06:29:49;34.17;;;22.50;;
68300;SDS011;55146;47.468;18.806;2023-03-24T06:32:17;40.30;;;24.87;;
68300;SDS011;55146;47.468;18.806;2023-03-24T06:34:43;38.45;;;24.83;;
68300;SDS011;55146;47.468;18.806;2023-03-24T06:37:09;27.73;;;18.75;;
68300;SDS011;55146;47.468;18.806;2023-03-24T06:39:34;27.17;;;18.30;;
68300;SDS011;55146;47.468;18.806;2023-03-24T06:41:59;20.70;;;13.50;;
68300;SDS011;55146;47.468;18.806;2023-03-24T06:44:25;21.03;;;13.00;;
68300;SDS011;55146;47.468;18.806;2023-03-24T06:46:50;17.70;;;12.30;;
68300;SDS011;55146;47.468;18.806;2023-03-24T06:49:15;42.63;;;22.87;;
68300;SDS011;55146;47.468;18.806;2023-03-24T06:51:41;36.57;;;20.90;;
68300;SDS011;55146;47.468;18.806;2023-03-24T06:54:06;24.73;;;15.40;;
68300;SDS011;55146;47.468;18.806;2023-03-24T06:56:32;22.60;;;14.83;;
68300;SDS011;55146;47.468;18.806;2023-03-24T06:58:58;19.73;;;14.35;;
68300;SDS011;55146;47.468;18.806;2023-03-24T07:01:24;20.17;;;14.77;;
68300;SDS011;55146;47.468;18.806;2023-03-24T07:03:50;21.67;;;15.10;;
68300;SDS011;55146;47.468;18.806;2023-03-24T07:06:15;23.10;;;15.18;;
68300;SDS011;55146;47.468;18.806;2023-03-24T07:08:42;25.47;;;15.20;;
68300;SDS011;55146;47.468;18.806;2023-03-24T07:11:08;22.13;;;14.77;;
68300;SDS011;55146;47.468;18.806;2023-03-24T07:13:34;23.00;;;15.07;;
68300;SDS011;55146;47.468;18.806;2023-03-24T07:16:00;20.73;;;14.85;;
68300;SDS011;55146;47.468;18.806;2023-03-24T07:18:26;17.17;;;13.33;;
68300;SDS011;55146;47.468;18.806;2023-03-24T07:20:51;17.67;;;15.00;;
68300;SDS011;55146;47.468;18.806;2023-03-24T07:23:17;19.30;;;14.00;;
68300;SDS011;55146;47.468;18.806;2023-03-24T07:25:42;17.67;;;12.70;;
68300;SDS011;55146;47.468;18.806;2023-03-24T07:28:08;19.70;;;14.02;;
68300;SDS011;55146;47.468;18.806;2023-03-24T07:30:35;19.30;;;12.45;;
68300;SDS011;55146;47.468;18.806;2023-03-24T07:33:01;11.03;;;7.87;;
68300;SDS011;55146;47.468;18.806;2023-03-24T07:35:28;11.88;;;8.30;;
68300;SDS011;55146;47.468;18.806;2023-03-24T07:37:59;14.80;;;8.13;;
68300;SDS011;55146;47.468;18.806;2023-03-24T07:40:25;10.60;;;7.40;;
68300;SDS011;55146;47.468;18.806;2023-03-24T07:42:51;10.38;;;7.28;;
68300;SDS011;55146;47.468;18.806;2023-03-24T07:45:16;10.53;;;7.10;;
68300;SDS011;55146;47.468;18.806;2023-03-24T07:47:42;12.20;;;7.33;;
68300;SDS011;55146;47.468;18.806;2023-03-24T07:50:08;10.27;;;6.60;;
68300;SDS011;55146;47.468;18.806;2023-03-24T07:52:36;10.35;;;6.75;;
68300;SDS011;55146;47.468;18.806;2023-03-24T07:55:08;9.60;;;6.37;;
68300;SDS011;55146;47.468;18.806;2023-03-24T07:57:40;11.10;;;7.50;;
68300;SDS011;55146;47.468;18.806;2023-03-24T08:00:06;15.25;;;7.90;;
68300;SDS011;55146;47.468;18.806;2023-03-24T08:02:41;10.32;;;7.72;;
68300;SDS011;55146;47.468;18.806;2023-03-24T08:05:10;11.35;;;7.87;;
68300;SDS011;55146;47.468;18.806;2023-03-24T08:07:39;9.73;;;6.80;;
68300;SDS011;55146;47.468;18.806;2023-03-24T08:10:07;12.13;;;7.47;;
68300;SDS011;55146;47.468;18.806;2023-03-24T08:12:36;10.73;;;7.47;;
68300;SDS011;55146;47.468;18.806;2023-03-24T08:15:02;12.73;;;7.60;;
68300;SDS011;55146;47.468;18.806;2023-03-24T08:17:29;14.03;;;8.80;;
68300;SDS011;55146;47.468;18.806;2023-03-24T08:19:55;17.87;;;10.48;;
68300;SDS011;55146;47.468;18.806;2023-03-24T08:22:20;13.97;;;10.00;;
68300;SDS011;55146;47.468;18.806;2023-03-24T08:24:46;14.52;;;9.63;;
68300;SDS011;55146;47.468;18.806;2023-03-24T08:27:11;12.60;;;9.10;;
68300;SDS011;55146;47.468;18.806;2023-03-24T08:29:36;15.30;;;9.60;;
68300;SDS011;55146;47.468;18.806;2023-03-24T08:32:02;15.70;;;9.03;;
68300;SDS011;55146;47.468;18.806;2023-03-24T08:34:28;15.05;;;10.07;;
68300;SDS011;55146;47.468;18.806;2023-03-24T08:36:54;14.27;;;9.80;;
68300;SDS011;55146;47.468;18.806;2023-03-24T08:39:19;16.47;;;11.10;;
68300;SDS011;55146;47.468;18.806;2023-03-24T08:41:45;17.12;;;11.20;;
68300;SDS011;55146;47.468;18.806;2023-03-24T08:44:10;15.70;;;10.70;;
68300;SDS011;55146;47.468;18.806;2023-03-24T08:46:36;14.27;;;10.80;;
68300;SDS011;55146;47.468;18.806;2023-03-24T08:49:02;17.17;;;11.30;;
68300;SDS011;55146;47.468;18.806;2023-03-24T08:51:28;15.02;;;11.20;;
68300;SDS011;55146;47.468;18.806;2023-03-24T08:53:53;18.67;;;11.57;;
68300;SDS011;55146;47.468;18.806;2023-03-24T08:56:19;17.80;;;11.23;;
68300;SDS011;55146;47.468;18.806;2023-03-24T08:58:45;19.17;;;10.70;;
68300;SDS011;55146;47.468;18.806;2023-03-24T09:01:12;15.77;;;11.27;;
68300;SDS011;55146;47.468;18.806;2023-03-24T09:03:38;15.88;;;11.05;;
68300;SDS011;55146;47.468;18.806;2023-03-24T09:06:04;15.57;;;11.27;;
68300;SDS011;55146;47.468;18.806;2023-03-24T09:08:30;15.98;;;11.00;;
68300;SDS011;55146;47.468;18.806;2023-03-24T09:10:56;16.35;;;10.75;;
68300;SDS011;55146;47.468;18.806;2023-03-24T09:13:22;13.40;;;9.80;;
68300;SDS011;55146;47.468;18.806;2023-03-24T09:15:48;15.60;;;9.38;;
68300;SDS011;55146;47.468;18.806;2023-03-24T09:18:16;15.90;;;10.73;;
68300;SDS011;55146;47.468;18.806;2023-03-24T09:20:42;14.50;;;10.07;;
68300;SDS011;55146;47.468;18.806;2023-03-24T09:23:09;15.05;;;9.95;;
68300;SDS011;55146;47.468;18.806;2023-03-24T09:25:35;12.85;;;9.77;;
68300;SDS011;55146;47.468;18.806;2023-03-24T09:28:00;10.73;;;7.60;;
68300;SDS011;55146;47.468;18.806;2023-03-24T09:30:26;13.80;;;9.23;;
68300;SDS011;55146;47.468;18.806;2023-03-24T09:32:51;14.03;;;9.50;;
68300;SDS011;55146;47.468;18.806;2023-03-24T09:35:17;16.30;;;10.33;;
68300;SDS011;55146;47.468;18.806;2023-03-24T09:37:42;16.20;;;10.80;;
68300;SDS011;55146;47.468;18.806;2023-03-24T09:40:14;14.37;;;10.03;;
68300;SDS011;55146;47.468;18.806;2023-03-24T09:42:44;15.57;;;10.57;;
68300;SDS011;55146;47.468;18.806;2023-03-24T09:45:19;17.43;;;10.50;;
68300;SDS011;55146;47.468;18.806;2023-03-24T09:47:56;14.23;;;10.48;;
68300;SDS011;55146;47.468;18.806;2023-03-24T09:53:01;20.65;;;12.07;;
68300;SDS011;55146;47.468;18.806;2023-03-24T09:55:32;15.75;;;11.75;;
68300;SDS011;55146;47.468;18.806;2023-03-24T09:58:03;15.80;;;9.63;;
68300;SDS011;55146;47.468;18.806;2023-03-24T10:00:32;18.75;;;10.55;;
68300;SDS011;55146;47.468;18.806;2023-03-24T10:03:09;18.23;;;11.65;;
68300;SDS011;55146;47.468;18.806;2023-03-24T10:08:43;18.08;;;10.18;;
68300;SDS011;55146;47.468;18.806;2023-03-24T10:11:36;15.20;;;9.03;;
68300;SDS011;55146;47.468;18.806;2023-03-24T10:14:14;20.73;;;10.13;;
68300;SDS011;55146;47.468;18.806;2023-03-24T10:17:02;22.35;;;11.60;;
68300;SDS011;55146;47.468;18.806;2023-03-24T10:22:26;12.45;;;6.80;;
68300;SDS011;55146;47.468;18.806;2023-03-24T10:24:58;17.60;;;6.67;;
68300;SDS011;55146;47.468;18.806;2023-03-24T10:27:45;10.52;;;6.28;;
68300;SDS011;55146;47.468;18.806;2023-03-24T10:32:42;11.98;;;6.45;;
68300;SDS011;55146;47.468;18.806;2023-03-24T10:35:14;14.70;;;6.95;;
68300;SDS011;55146;47.468;18.806;2023-03-24T10:37:45;12.10;;;6.33;;
68300;SDS011;55146;47.468;18.806;2023-03-24T10:40:13;11.50;;;6.10;;
68300;SDS011;55146;47.468;18.806;2023-03-24T10:42:41;12.30;;;6.22;;
68300;SDS011;55146;47.468;18.806;2023-03-24T10:45:12;10.20;;;6.10;;
68300;SDS011;55146;47.468;18.806;2023-03-24T10:47:43;14.60;;;6.95;;
68300;SDS011;55146;47.468;18.806;2023-03-24T10:50:08;14.80;;;6.70;;
68300;SDS011;55146;47.468;18.806;2023-03-24T10:52:38;11.43;;;5.82;;
68300;SDS011;55146;47.468;18.806;2023-03-24T10:55:05;15.98;;;6.57;;
68300;SDS011;55146;47.468;18.806;2023-03-24T10:57:31;11.50;;;6.70;;
68300;SDS011;55146;47.468;18.806;2023-03-24T11:02:29;15.07;;;6.68;;
68300;SDS011;55146;47.468;18.806;2023-03-24T11:04:56;13.75;;;6.68;;
68300;SDS011;55146;47.468;18.806;2023-03-24T11:07:43;11.90;;;6.93;;
68300;SDS011;55146;47.468;18.806;2023-03-24T11:10:18;12.13;;;6.07;;
68300;SDS011;55146;47.468;18.806;2023-03-24T11:15:18;11.05;;;6.07;;
68300;SDS011;55146;47.468;18.806;2023-03-24T11:17:46;12.25;;;5.68;;
68300;SDS011;55146;47.468;18.806;2023-03-24T11:20:19;12.55;;;5.80;;
68300;SDS011;55146;47.468;18.806;2023-03-24T11:23:13;13.10;;;5.57;;
68300;SDS011;55146;47.468;18.806;2023-03-24T11:25:49;9.77;;;5.03;;
68300;SDS011;55146;47.468;18.806;2023-03-24T11:28:28;15.15;;;5.10;;
68300;SDS011;55146;47.468;18.806;2023-03-24T11:30:58;10.73;;;4.95;;
68300;SDS011;55146;47.468;18.806;2023-03-24T11:33:32;10.90;;;5.25;;
68300;SDS011;55146;47.468;18.806;2023-03-24T11:38:58;10.40;;;4.60;;
68300;SDS011;55146;47.468;18.806;2023-03-24T11:41:34;12.13;;;5.03;;
68300;SDS011;55146;47.468;18.806;2023-03-24T11:44:18;8.70;;;4.20;;
68300;SDS011;55146;47.468;18.806;2023-03-24T11:46:47;9.65;;;4.45;;
68300;SDS011;55146;47.468;18.806;2023-03-24T11:49:18;10.03;;;3.80;;
68300;SDS011;55146;47.468;18.806;2023-03-24T11:51:46;8.32;;;4.93;;
68300;SDS011;55146;47.468;18.806;2023-03-24T11:54:16;6.53;;;3.75;;
68300;SDS011;55146;47.468;18.806;2023-03-24T11:56:45;7.10;;;4.12;;
68300;SDS011;55146;47.468;18.806;2023-03-24T12:12:58;8.63;;;4.30;;
68300;SDS011;55146;47.468;18.806;2023-03-24T12:18:02;8.38;;;4.53;;
68300;SDS011;55146;47.468;18.806;2023-03-24T12:20:31;9.17;;;3.77;;
68300;SDS011;55146;47.468;18.806;2023-03-24T12:23:08;7.10;;;3.70;;
68300;SDS011;55146;47.468;18.806;2023-03-24T12:31:27;6.20;;;4.18;;
68300;SDS011;55146;47.468;18.806;2023-03-24T12:39:27;6.18;;;4.30;;
68300;SDS011;55146;47.468;18.806;2023-03-24T12:50:17;7.28;;;3.85;;
68300;SDS011;55146;47.468;18.806;2023-03-24T12:53:21;5.50;;;3.10;;
68300;SDS011;55146;47.468;18.806;2023-03-24T12:55:55;8.13;;;4.50;;
68300;SDS011;55146;47.468;18.806;2023-03-24T13:04:03;7.18;;;3.58;;
68300;SDS011;55146;47.468;18.806;2023-03-24T13:17:38;6.80;;;3.25;;
68300;SDS011;55146;47.468;18.806;2023-03-24T13:20:15;6.50;;;3.50;;
68300;SDS011;55146;47.468;18.806;2023-03-24T13:22:48;7.30;;;3.85;;
68300;SDS011;55146;47.468;18.806;2023-03-24T13:25:28;6.95;;;3.15;;
68300;SDS011;55146;47.468;18.806;2023-03-24T13:27:59;8.63;;;3.83;;
68300;SDS011;55146;47.468;18.806;2023-03-24T13:30:32;7.12;;;3.72;;
68300;SDS011;55146;47.468;18.806;2023-03-24T13:33:06;5.87;;;3.58;;
68300;SDS011;55146;47.468;18.806;2023-03-24T13:38:37;7.82;;;3.40;;
68300;SDS011;55146;47.468;18.806;2023-03-24T13:41:10;6.60;;;4.27;;
68300;SDS011;55146;47.468;18.806;2023-03-24T13:43:48;7.85;;;3.58;;
68300;SDS011;55146;47.468;18.806;2023-03-24T13:46:16;4.97;;;3.12;;
68300;SDS011;55146;47.468;18.806;2023-03-24T13:48:45;10.32;;;3.95;;
68300;SDS011;55146;47.468;18.806;2023-03-24T13:51:17;7.45;;;3.33;;
68300;SDS011;55146;47.468;18.806;2023-03-24T13:56:23;6.12;;;3.87;;
68300;SDS011;55146;47.468;18.806;2023-03-24T14:01:31;6.70;;;3.78;;
68300;SDS011;55146;47.468;18.806;2023-03-24T14:05:02;8.60;;;3.30;;
68300;SDS011;55146;47.468;18.806;2023-03-24T14:09:59;5.22;;;3.60;;
68300;SDS011;55146;47.468;18.806;2023-03-24T14:12:34;9.15;;;2.95;;
68300;SDS011;55146;47.468;18.806;2023-03-24T14:15:20;8.20;;;4.03;;
68300;SDS011;55146;47.468;18.806;2023-03-24T14:23:22;5.55;;;3.65;;
68300;SDS011;55146;47.468;18.806;2023-03-24T14:26:14;5.57;;;2.92;;
68300;SDS011;55146;47.468;18.806;2023-03-24T14:28:54;5.90;;;3.30;;
68300;SDS011;55146;47.468;18.806;2023-03-24T14:39:07;6.07;;;3.92;;
68300;SDS011;55146;47.468;18.806;2023-03-24T14:41:48;9.32;;;6.12;;
68300;SDS011;55146;47.468;18.806;2023-03-24T14:47:15;9.57;;;5.10;;
68300;SDS011;55146;47.468;18.806;2023-03-24T14:49:43;8.68;;;3.80;;
68300;SDS011;55146;47.468;18.806;2023-03-24T14:55:01;5.62;;;3.35;;
68300;SDS011;55146;47.468;18.806;2023-03-24T15:00:19;5.60;;;3.63;;
68300;SDS011;55146;47.468;18.806;2023-03-24T15:02:47;6.45;;;3.72;;
68300;SDS011;55146;47.468;18.806;2023-03-24T15:05:19;6.55;;;2.72;;
68300;SDS011;55146;47.468;18.806;2023-03-24T15:08:35;4.82;;;3.05;;
68300;SDS011;55146;47.468;18.806;2023-03-24T15:10:47;7.22;;;3.42;;
68300;SDS011;55146;47.468;18.806;2023-03-24T15:16:26;7.05;;;3.17;;
68300;SDS011;55146;47.468;18.806;2023-03-24T15:19:01;5.87;;;3.78;;
68300;SDS011;55146;47.468;18.806;2023-03-24T15:21:33;7.20;;;3.50;;
68300;SDS011;55146;47.468;18.806;2023-03-24T15:26:45;6.73;;;3.77;;
68300;SDS011;55146;47.468;18.806;2023-03-24T15:29:11;7.07;;;3.62;;
68300;SDS011;55146;47.468;18.806;2023-03-24T15:31:37;7.35;;;3.67;;
68300;SDS011;55146;47.468;18.806;2023-03-24T15:36:33;6.57;;;3.08;;
68300;SDS011;55146;47.468;18.806;2023-03-24T15:39:02;5.93;;;4.10;;
68300;SDS011;55146;47.468;18.806;2023-03-24T15:41:41;6.87;;;3.42;;
68300;SDS011;55146;47.468;18.806;2023-03-24T15:44:07;9.10;;;3.15;;
68300;SDS011;55146;47.468;18.806;2023-03-24T15:46:32;6.87;;;3.43;;
68300;SDS011;55146;47.468;18.806;2023-03-24T15:48:58;7.37;;;3.63;;
68300;SDS011;55146;47.468;18.806;2023-03-24T15:54:22;6.03;;;3.47;;
68300;SDS011;55146;47.468;18.806;2023-03-24T15:59:45;6.05;;;3.55;;
68300;SDS011;55146;47.468;18.806;2023-03-24T16:07:55;6.32;;;3.80;;
68300;SDS011;55146;47.468;18.806;2023-03-24T16:15:40;6.87;;;3.95;;
68300;SDS011;55146;47.468;18.806;2023-03-24T16:18:14;9.65;;;4.47;;
68300;SDS011;55146;47.468;18.806;2023-03-24T16:20:42;5.97;;;3.67;;
68300;SDS011;55146;47.468;18.806;2023-03-24T16:23:09;8.67;;;4.07;;
68300;SDS011;55146;47.468;18.806;2023-03-24T16:25:35;7.97;;;3.22;;
68300;SDS011;55146;47.468;18.806;2023-03-24T16:28:01;9.67;;;4.07;;
68300;SDS011;55146;47.468;18.806;2023-03-24T16:30:26;9.53;;;4.50;;
68300;SDS011;55146;47.468;18.806;2023-03-24T16:32:54;8.00;;;3.78;;
68300;SDS011;55146;47.468;18.806;2023-03-24T16:35:20;6.93;;;4.10;;
68300;SDS011;55146;47.468;18.806;2023-03-24T16:37:45;6.83;;;3.93;;
68300;SDS011;55146;47.468;18.806;2023-03-24T16:40:18;8.03;;;4.63;;
68300;SDS011;55146;47.468;18.806;2023-03-24T16:42:49;10.10;;;4.43;;
68300;SDS011;55146;47.468;18.806;2023-03-24T16:45:14;8.90;;;4.40;;
68300;SDS011;55146;47.468;18.806;2023-03-24T16:47:40;10.00;;;5.12;;
68300;SDS011;55146;47.468;18.806;2023-03-24T16:52:58;10.63;;;4.78;;
68300;SDS011;55146;47.468;18.806;2023-03-24T16:55:24;11.05;;;4.75;;
68300;SDS011;55146;47.468;18.806;2023-03-24T16:57:50;9.37;;;4.83;;
68300;SDS011;55146;47.468;18.806;2023-03-24T17:00:15;10.17;;;5.23;;
68300;SDS011;55146;47.468;18.806;2023-03-24T17:02:41;10.40;;;5.20;;
68300;SDS011;55146;47.468;18.806;2023-03-24T17:05:33;10.38;;;5.87;;
68300;SDS011;55146;47.468;18.806;2023-03-24T17:08:03;8.33;;;4.97;;
68300;SDS011;55146;47.468;18.806;2023-03-24T17:10:28;13.77;;;5.57;;
68300;SDS011;55146;47.468;18.806;2023-03-24T17:12:54;9.33;;;4.40;;
68300;SDS011;55146;47.468;18.806;2023-03-24T17:17:48;8.02;;;4.60;;
68300;SDS011;55146;47.468;18.806;2023-03-24T17:20:14;7.23;;;4.57;;
68300;SDS011;55146;47.468;18.806;2023-03-24T17:22:42;9.18;;;4.82;;
68300;SDS011;55146;47.468;18.806;2023-03-24T17:25:10;9.93;;;5.10;;
68300;SDS011;55146;47.468;18.806;2023-03-24T17:27:36;8.32;;;5.00;;
68300;SDS011;55146;47.468;18.806;2023-03-24T17:30:03;9.23;;;4.37;;
68300;SDS011;55146;47.468;18.806;2023-03-24T17:32:39;8.18;;;3.80;;
68300;SDS011;55146;47.468;18.806;2023-03-24T17:35:05;9.07;;;4.53;;
68300;SDS011;55146;47.468;18.806;2023-03-24T17:37:34;12.17;;;4.93;;